map of TRV home
Great Circle Mapper logo
TRV - Airport
Location
City:  Trivandrum, India
Name:Thiruvananthapuram International Airport
ICAO / IATA:VOTV / TRV

Details
Type:Airport (Aerodrome, Airfield)
Use:Public/Civil, International (customs port of entry)
Latitude:8°28'56"N (8.482122)
Longitude:76°55'12"E (76.920114)
Datum:WGS 1984
Elevation:15 ft (5 m)
Runways:1
Longest:11148 × 150 ft (3398 × 45.5 m), paved

Time
Time Zone:UTC+5:30
Local Time:

Weather
METAR:VOTV 161440Z 060/03KT 3000 TS SCT015 FEW025CB OVC090 25/23 Q1009 NOSIG
TAF:VOTV 161500Z 1618/1724 00000KT 4000 HZ SCT015 SCT100
TEMPO 1618/1621 2000 TSRA/RA SCT010 FEW025CB BKN080
TEMPO 1700/1703 2000 BR/HZ
BECMG 1704/1705 24005KT 6000
TEMPO 1710/1714 2000 TSRA/RA SCT010 FEW025CB BKN080
BECMG 1716/1717 00000KT 4000 HZ

Related Locations
Nearby:
Farthest:SEII: 11462 mi / 18446 km
Puerto Villamil [General Villamil], Isabela Island, Galápagos Islands, EC

Find:

   beyond  
but within

Other Information
Maps:
NOTAMs:
Links:
Sources:

  
flag of India   

Sectional Chart

Flight Planning
at skyvector.com

Satellite Image

Google Maps Satellite View

 

Copyright © 2004-2014 Karl L. Swartz. All rights reserved.
The Great Circle Mapper name and logo are trademarks of the Great Circle Mapper.
All other trademarks mentioned herein belong to their respective owners.
Please see credits for attibutions and further copyright information.

  Follow gcmap on Facebook Follow gcmap on Twitter

hCard Microformat

Geo Microformat